createdAt,value
2017-06-03T00:02:14.779Z,75.71
2017-06-03T00:04:39.059Z,76.2
2017-06-03T00:07:03.460Z,76.49
2017-06-03T00:09:13.551Z,76.78
2017-06-03T00:11:29.445Z,76.01
2017-06-03T00:13:46.307Z,76.1
2017-06-03T00:16:02.196Z,76.49
2017-06-03T00:18:17.983Z,76.01
2017-06-03T00:20:33.874Z,76.39
2017-06-03T00:22:58.161Z,76.45
2017-06-03T00:25:22.460Z,76.16
2017-06-03T00:27:46.840Z,75.97
2017-06-03T00:30:11.155Z,76.45
2017-06-03T00:32:35.411Z,76.64
2017-06-03T00:34:59.696Z,76.61
2017-06-03T00:37:23.980Z,77.19
2017-06-03T00:39:48.271Z,77.38
2017-06-03T00:42:12.449Z,77
2017-06-03T00:44:28.245Z,77.28
2017-06-03T00:46:52.528Z,77.09
2017-06-03T00:49:16.818Z,77.09
2017-06-03T00:51:32.602Z,76.9
2017-06-03T00:53:56.888Z,77.53
2017-06-03T00:56:07.344Z,77.44
2017-06-03T00:58:31.639Z,78.21
2017-06-03T01:00:55.922Z,79.43
2017-06-03T01:03:20.206Z,80.68
2017-06-03T01:05:44.497Z,79.91
2017-06-03T01:07:54.935Z,79.81
2017-06-03T01:10:19.252Z,78.99
2017-06-03T01:12:43.529Z,78.85
2017-06-03T01:14:59.315Z,77.98
2017-06-03T01:17:23.497Z,79.24
2017-06-03T01:19:47.690Z,79.43
2017-06-03T01:22:11.880Z,79.1
2017-06-03T01:24:36.057Z,78.94
2017-06-03T01:27:00.241Z,78.75
2017-06-03T01:29:24.526Z,78.36
2017-06-03T01:31:48.711Z,77.98
2017-06-03T01:34:12.894Z,78.75
2017-06-03T01:36:37.182Z,78.21
2017-06-03T01:39:01.466Z,78.02
2017-06-03T01:41:17.252Z,78.41
2017-06-03T01:43:41.431Z,78.75
2017-06-03T01:46:05.621Z,78.66
2017-06-03T01:48:29.807Z,78.85
2017-06-03T01:50:53.990Z,79.43
2017-06-03T01:53:09.736Z,80
2017-06-03T01:55:25.460Z,78.75
2017-06-03T01:57:41.254Z,78.85
2017-06-03T02:00:05.437Z,79.04
2017-06-03T02:02:29.727Z,78.46
2017-06-03T02:04:45.506Z,78.17
2017-06-03T02:06:47.097Z,78.85
2017-06-03T02:09:11.345Z,79.04
2017-06-03T02:11:35.539Z,79.39
2017-06-03T02:13:59.716Z,79.1
2017-06-03T02:16:01.703Z,78.46
2017-06-03T02:18:25.966Z,78.27
2017-06-03T02:20:50.154Z,78.91
2017-06-03T02:23:14.335Z,79.29
2017-06-03T02:25:30.122Z,78.81
2017-06-03T02:27:54.312Z,78.56
2017-06-03T02:30:18.484Z,78.13
2017-06-03T02:32:20.076Z,78.46
2017-06-03T02:34:44.335Z,78.27
2017-06-03T02:37:08.516Z,78.13
2017-06-03T02:39:32.704Z,79.39
2017-06-03T02:41:34.100Z,81.18
2017-06-03T02:43:58.335Z,80.69
2017-06-03T02:46:22.516Z,81.81
2017-06-03T02:48:46.700Z,82.68
2017-06-03T02:51:10.876Z,83.64
2017-06-03T02:53:35.076Z,83.16
2017-06-03T02:55:59.249Z,83.8
2017-06-03T02:58:23.333Z,84.56
2017-06-03T03:00:39.031Z,84.28
2017-06-03T03:03:03.102Z,84.47
2017-06-03T03:05:27.180Z,83.26
2017-06-03T03:07:51.261Z,82.2
2017-06-03T03:10:15.351Z,81.81
2017-06-03T03:12:30.994Z,82.01
2017-06-03T03:14:55.116Z,80.76
2017-06-03T03:17:10.816Z,80.31
2017-06-03T03:19:34.980Z,79.25
2017-06-03T03:21:59.166Z,78.23
2017-06-03T03:24:23.361Z,78.52
2017-06-03T03:26:47.535Z,78.61
2017-06-03T03:29:11.642Z,78.71
2017-06-03T03:31:35.698Z,78.81
2017-06-03T03:33:59.786Z,78.71
2017-06-03T03:36:23.963Z,78.23
2017-06-03T03:38:48.036Z,78.13
2017-06-03T03:40:49.408Z,78.33
2017-06-03T03:43:13.574Z,77.59
2017-06-03T03:45:37.661Z,76.72
2017-06-03T03:48:01.853Z,76.43
2017-06-03T03:50:26.040Z,76.09
2017-06-03T03:52:50.221Z,75.51
2017-06-03T03:55:14.409Z,75.51
2017-06-03T03:57:24.341Z,75.7
2017-06-03T03:59:48.535Z,74.77
2017-06-03T04:01:55.785Z,73.32
2017-06-03T04:04:20.013Z,73.26
2017-06-03T04:06:44.299Z,72.2
2017-06-03T04:09:08.587Z,71.17
2017-06-03T04:11:32.878Z,70.4
2017-06-03T04:13:57.154Z,70.5
2017-06-03T04:16:21.449Z,69.27
2017-06-03T04:18:45.731Z,69.11
2017-06-03T04:21:10.025Z,68.69
2017-06-03T04:23:34.300Z,67.63
2017-06-03T04:25:58.699Z,63.78
2017-06-03T04:28:23.093Z,59.22
2017-06-03T04:30:24.576Z,56.2
2017-06-03T04:32:40.644Z,51.46
2017-06-03T04:34:42.609Z,49.24
2017-06-03T04:37:07.317Z,46
2017-06-03T04:39:23.621Z,44.16
2017-06-03T04:41:48.430Z,41.49
2017-06-03T04:44:04.936Z,40.74
2017-06-03T04:46:29.953Z,37.56
2017-06-03T04:48:55.061Z,36.9
2017-06-03T04:51:11.762Z,34.41
2017-06-03T04:53:36.986Z,36.22
2017-06-03T04:55:53.785Z,34.43
2017-06-03T04:58:19.213Z,31.07
2017-06-03T05:00:44.729Z,31.92
2017-06-03T05:02:55.575Z,30.11
2017-06-03T05:05:21.237Z,29.33
2017-06-03T05:07:46.980Z,29.72
2017-06-03T05:10:12.682Z,30.47
2017-06-03T05:12:38.411Z,26.07
2017-06-03T05:15:04.131Z,25.3
2017-06-03T05:17:29.963Z,26.26
2017-06-03T05:19:55.879Z,23.76
2017-06-03T05:22:21.800Z,20.75
2017-06-03T05:24:47.848Z,20.26
2017-06-03T05:27:14.010Z,19.59
2017-06-03T05:29:40.136Z,17.24
2017-06-03T05:32:06.464Z,15.19
2017-06-03T05:34:32.914Z,15.01
2017-06-03T05:36:59.402Z,13.33
2017-06-03T05:39:25.880Z,12.63
2017-06-03T05:41:52.415Z,13.21
2017-06-03T05:44:19.155Z,12.72
2017-06-03T05:46:45.860Z,11.94
2017-06-03T05:49:12.591Z,10.76
2017-06-03T05:51:39.471Z,9.36
2017-06-03T05:54:06.349Z,8.47
2017-06-03T05:56:33.334Z,10.05
2017-06-03T05:59:00.361Z,10.06
2017-06-03T06:01:27.440Z,12.61
2017-06-03T06:03:54.441Z,11.73
2017-06-03T06:06:21.307Z,11.43
2017-06-03T06:08:39.553Z,11.22
2017-06-03T06:11:06.500Z,11.24
2017-06-03T06:13:33.456Z,9.55
2017-06-03T06:16:00.624Z,8.87
2017-06-03T06:18:27.703Z,6.98
2017-06-03T06:20:54.951Z,8.26
2017-06-03T06:23:22.295Z,8.17
2017-06-03T06:25:49.769Z,7.47
2017-06-03T06:28:17.236Z,7.57
2017-06-03T06:30:44.801Z,8.56
2017-06-03T06:33:12.361Z,8.57
2017-06-03T06:35:39.925Z,14.47
2017-06-03T06:37:58.891Z,15.92
2017-06-03T06:40:26.560Z,17
2017-06-03T06:42:54.247Z,18.65
2017-06-03T06:45:21.886Z,17.58
2017-06-03T06:47:49.530Z,19.72
2017-06-03T06:50:16.875Z,20.11
2017-06-03T06:52:44.076Z,17.89
2017-06-03T06:55:11.091Z,21.84
2017-06-03T06:57:38.023Z,22.61
2017-06-03T07:00:04.759Z,23.68
2017-06-03T07:02:14.215Z,23.41
2017-06-03T07:04:40.832Z,24.56
2017-06-03T07:07:07.263Z,25.24
2017-06-03T07:09:33.694Z,23.79
2017-06-03T07:12:00.019Z,23.35
2017-06-03T07:14:26.248Z,23.82
2017-06-03T07:16:52.400Z,23.36
2017-06-03T07:19:18.451Z,23.63
2017-06-03T07:21:44.534Z,22.75
2017-06-03T07:24:11.645Z,23.34
2017-06-03T07:26:37.614Z,23.46
2017-06-03T07:29:03.666Z,21.7
2017-06-03T07:31:29.657Z,21.6
2017-06-03T07:33:55.699Z,22.28
2017-06-03T07:36:21.726Z,24.48
2017-06-03T07:38:47.832Z,25.27
2017-06-03T07:41:13.998Z,26.12
2017-06-03T07:43:33.698Z,25.82
2017-06-03T07:46:04.613Z,25.85
2017-06-03T07:48:21.626Z,26.2
2017-06-03T07:50:49.710Z,27.11
2017-06-03T07:53:15.855Z,26.13
2017-06-03T07:55:41.963Z,25.85
2017-06-03T07:58:07.999Z,27.36
2017-06-03T08:00:41.407Z,25.37
2017-06-03T08:03:14.478Z,24.26
2017-06-03T08:05:40.680Z,24.32
2017-06-03T08:08:06.850Z,23.57
2017-06-03T08:10:33.076Z,25.27
2017-06-03T08:12:59.339Z,24.51
2017-06-03T08:15:25.668Z,24.33
2017-06-03T08:17:51.907Z,23.27
2017-06-03T08:20:18.118Z,21.9
2017-06-03T08:22:44.346Z,22.3
2017-06-03T08:25:10.586Z,22.96
2017-06-03T08:27:36.941Z,22.02
2017-06-03T08:30:03.144Z,20.94
2017-06-03T08:32:29.545Z,20.25
2017-06-03T08:34:55.817Z,20.86
2017-06-03T08:37:22.193Z,18.71
2017-06-03T08:39:24.093Z,18.49
2017-06-03T08:41:50.577Z,20.23
2017-06-03T08:44:54.280Z,20.81
2017-06-03T08:47:20.705Z,21.11
2017-06-03T08:49:47.045Z,23.6
2017-06-03T08:52:13.373Z,22.55
2017-06-03T08:54:39.727Z,23.81
2017-06-03T08:57:06.040Z,22.36
2017-06-03T08:59:32.687Z,23.12
2017-06-03T09:02:00.045Z,22.17
2017-06-03T09:04:17.780Z,22.08
2017-06-03T09:06:44.112Z,21.28
2017-06-03T09:08:55.334Z,22.33
2017-06-03T09:11:13.112Z,21.57
2017-06-03T09:13:39.463Z,20.9
2017-06-03T09:16:05.801Z,21.96
2017-06-03T09:18:08.331Z,22.74
2017-06-03T09:20:34.710Z,21.67
2017-06-03T09:23:01.045Z,21.3
2017-06-03T09:25:27.362Z,21.35
2017-06-03T09:27:36.509Z,21.56
2017-06-03T09:30:02.735Z,21.46
2017-06-03T09:32:20.362Z,20.79
2017-06-03T09:34:46.492Z,21.11
2017-06-03T09:37:04.126Z,21.39
2017-06-03T09:39:21.754Z,20.43
2017-06-03T09:41:48.013Z,23.03
2017-06-03T09:44:14.225Z,21.36
2017-06-03T09:46:40.342Z,22.33
2017-06-03T09:48:50.893Z,22.34
2017-06-03T09:51:17.065Z,22.47
2017-06-03T09:53:43.172Z,21.61
2017-06-03T09:56:09.209Z,22.72
2017-06-03T09:58:35.329Z,21.65
2017-06-03T10:01:01.459Z,23.78
2017-06-03T10:03:27.596Z,25.21
2017-06-03T10:05:53.608Z,27.44
2017-06-03T10:07:55.951Z,28.58
2017-06-03T10:10:21.903Z,27.62
2017-06-03T10:12:47.724Z,28.58
2017-06-03T10:15:13.543Z,29.27
2017-06-03T10:17:39.374Z,27.7
2017-06-03T10:20:05.084Z,28.56
2017-06-03T10:22:30.799Z,29.53
2017-06-03T10:24:32.574Z,29.83
2017-06-03T10:26:49.759Z,29.71
2017-06-03T10:29:15.388Z,30.19
2017-06-03T10:31:40.899Z,30.35
2017-06-03T10:33:43.130Z,28.75
2017-06-03T10:36:08.619Z,30.87
2017-06-03T10:38:25.586Z,28.54
2017-06-03T10:40:42.493Z,28.95
2017-06-03T10:42:59.440Z,29.99
2017-06-03T10:45:16.345Z,30.36
2017-06-03T10:47:41.804Z,31.25
2017-06-03T10:50:07.255Z,30.38
2017-06-03T10:52:24.180Z,29.8
2017-06-03T10:54:49.569Z,31.43
2017-06-03T10:57:14.980Z,32.04
2017-06-03T11:01:02.198Z,30.08
2017-06-03T11:03:27.626Z,30.95
2017-06-03T11:05:53.022Z,31.12
2017-06-03T11:08:18.372Z,32.48
2017-06-03T11:10:35.244Z,32.18
2017-06-03T11:13:00.613Z,33.28
2017-06-03T11:15:11.420Z,31.92
2017-06-03T11:17:36.827Z,32.2
2017-06-03T11:20:02.173Z,32.59
2017-06-03T11:22:27.501Z,31.43
2017-06-03T11:24:52.753Z,33.53
2017-06-03T11:27:18.013Z,32.86
2017-06-03T11:29:43.279Z,33.62
2017-06-03T11:32:08.547Z,33.25
2017-06-03T11:34:33.799Z,33.25
2017-06-03T11:36:59.067Z,31.74
2017-06-03T11:39:24.338Z,31.64
2017-06-03T11:41:41.105Z,31.35
2017-06-03T11:44:06.429Z,31.66
2017-06-03T11:46:31.789Z,31.67
2017-06-03T11:48:57.134Z,31.88
2017-06-03T11:51:22.519Z,32.05
2017-06-03T11:53:39.385Z,32.07
2017-06-03T11:56:04.801Z,29.94
2017-06-03T11:58:30.193Z,28.54
2017-06-03T12:00:55.566Z,27.95
2017-06-03T12:03:20.982Z,27.87
2017-06-03T12:05:31.321Z,30.21
2017-06-03T12:07:56.797Z,29.51
2017-06-03T12:10:22.232Z,28.93
2017-06-03T12:12:47.655Z,30.97
2017-06-03T12:15:13.085Z,30.38
2017-06-03T12:17:38.497Z,31.66
2017-06-03T12:20:03.893Z,30.69
2017-06-03T12:22:29.296Z,32.1
2017-06-03T12:24:54.712Z,33.26
2017-06-03T12:27:20.107Z,33.17
2017-06-03T12:29:22.443Z,32.27
2017-06-03T12:31:47.824Z,32.18
2017-06-03T12:34:13.140Z,31.41
2017-06-03T12:36:38.471Z,29.27
2017-06-03T12:39:03.787Z,30.45
2017-06-03T12:41:29.142Z,31.61
2017-06-03T12:43:54.503Z,31.89
2017-06-03T12:46:19.810Z,32.27
2017-06-03T12:48:45.142Z,31.33
2017-06-03T12:51:10.462Z,30.05
2017-06-03T12:53:35.785Z,30.08
2017-06-03T12:56:01.151Z,29.61
2017-06-03T12:58:26.481Z,30.07
2017-06-03T13:00:28.806Z,32.01
2017-06-03T13:02:54.136Z,31.82
2017-06-03T13:05:19.521Z,31.04
2017-06-03T13:07:44.835Z,31.84
2017-06-03T13:10:10.184Z,30.3
2017-06-03T13:12:35.473Z,30.08
2017-06-03T13:15:00.776Z,29.53
2017-06-03T13:17:26.091Z,28.45
2017-06-03T13:19:42.853Z,29.83
2017-06-03T13:22:08.194Z,29
2017-06-03T13:24:33.612Z,29.19
2017-06-03T13:26:58.948Z,29.86
2017-06-03T13:29:24.285Z,28.42
2017-06-03T13:31:49.696Z,28.54
2017-06-03T13:34:15.037Z,29.9
2017-06-03T13:36:40.378Z,29.79
2017-06-03T13:39:05.740Z,29.71
2017-06-03T13:41:31.110Z,30.46
2017-06-03T13:43:56.498Z,30.55
2017-06-03T13:46:13.377Z,31.5
2017-06-03T13:48:38.706Z,31.15
2017-06-03T13:51:04.144Z,31.53
2017-06-03T13:53:29.502Z,32.01
2017-06-03T13:55:54.813Z,32.2
2017-06-03T13:58:20.158Z,31.43
2017-06-03T14:00:45.533Z,32.1
2017-06-03T14:03:10.803Z,32.95
2017-06-03T14:05:36.091Z,33.25
2017-06-03T14:08:01.378Z,32.28
2017-06-03T14:10:26.705Z,31.61
2017-06-03T14:12:51.943Z,32.01
2017-06-03T14:15:17.237Z,33.04
2017-06-03T14:17:42.480Z,34.75
2017-06-03T14:20:07.761Z,34.38
2017-06-03T14:22:32.973Z,34.36
2017-06-03T14:24:58.209Z,32.43
2017-06-03T14:27:23.368Z,32.45
2017-06-03T14:29:48.551Z,31.99
2017-06-03T14:32:13.756Z,31.99
2017-06-03T14:34:38.940Z,31.96
2017-06-03T14:37:04.353Z,32.18
2017-06-03T14:39:29.607Z,30.98
2017-06-03T14:41:54.921Z,30.01
2017-06-03T14:44:20.236Z,30.21
2017-06-03T14:46:45.579Z,30.02
2017-06-03T14:49:10.865Z,30.5
2017-06-03T14:51:36.154Z,31.58
2017-06-03T14:53:46.430Z,31.77
2017-06-03T14:56:11.848Z,31.77
2017-06-03T14:58:37.157Z,31.76
2017-06-03T15:01:09.213Z,31.76
2017-06-03T15:03:26.017Z,31.38
2017-06-03T15:05:36.795Z,31.55
2017-06-03T15:08:02.205Z,31.38
2017-06-03T15:10:05.165Z,31.16
2017-06-03T15:12:30.503Z,31.63
2017-06-03T15:14:55.817Z,31.63
2017-06-03T15:17:20.996Z,32.09
2017-06-03T15:19:46.229Z,33.43
2017-06-03T15:22:11.426Z,33.15
2017-06-03T15:24:36.641Z,32.95
2017-06-03T15:27:01.740Z,33.25
2017-06-03T15:29:26.947Z,33.25
2017-06-03T15:31:52.153Z,32.79
2017-06-03T15:34:17.265Z,32.1
2017-06-03T15:36:33.866Z,32.19
2017-06-03T15:38:58.973Z,33.25
2017-06-03T15:41:24.073Z,32.01
2017-06-03T15:43:40.693Z,33.74
2017-06-03T15:46:05.798Z,34.8
2017-06-03T15:48:30.898Z,35.58
2017-06-03T15:50:56.007Z,36.46
2017-06-03T15:53:04.111Z,37.32
2017-06-03T15:55:29.118Z,37.99
2017-06-03T15:57:54.117Z,38.3
2017-06-03T16:00:19.131Z,39.53
2017-06-03T16:02:44.125Z,40.04
2017-06-03T16:05:09.133Z,40.97
2017-06-03T16:07:34.136Z,40.88
2017-06-03T16:09:59.134Z,40.88
2017-06-03T16:12:24.141Z,42.14
2017-06-03T16:14:49.041Z,43.1
2017-06-03T16:17:14.042Z,43.27
2017-06-03T16:19:30.548Z,44.05
2017-06-03T16:21:55.557Z,46.34
2017-06-03T16:24:06.214Z,46.51
2017-06-03T16:26:31.122Z,46.69
2017-06-03T16:28:56.014Z,47.3
2017-06-03T16:31:20.915Z,49.22
2017-06-03T16:33:45.714Z,52.96
2017-06-03T16:36:10.504Z,55.19
2017-06-03T16:38:35.307Z,58.57
2017-06-03T16:41:00.108Z,60.48
2017-06-03T16:43:24.793Z,60.87
2017-06-03T16:45:49.495Z,62.59
2017-06-03T16:48:14.190Z,60.45
2017-06-03T16:50:38.882Z,60.91
2017-06-03T16:52:55.075Z,62.46
2017-06-03T16:55:19.688Z,61.42
2017-06-03T16:57:44.272Z,61.78
2017-06-03T16:59:46.268Z,62.36
2017-06-03T17:02:10.924Z,61.78
2017-06-03T17:04:35.518Z,61.71
2017-06-03T17:06:29.062Z,63.53
2017-06-03T17:08:53.782Z,62.78
2017-06-03T17:11:18.382Z,61.52
2017-06-03T17:13:43.980Z,62.19
2017-06-03T17:17:44.932Z,63.17
2017-06-03T17:21:45.804Z,63.07
2017-06-03T17:24:10.157Z,62.71
2017-06-03T17:26:41.642Z,61.68
2017-06-03T17:29:15.191Z,62.52
2017-06-03T17:31:41.796Z,63.01
2017-06-03T17:35:42.609Z,63.59
2017-06-03T17:39:34.939Z,63.78
2017-06-03T17:43:35.817Z,62.91
2017-06-03T17:46:01.461Z,65.98
2017-06-03T17:48:17.697Z,64.26
2017-06-03T17:50:49.132Z,63.98
2017-06-03T17:53:14.035Z,64.17
2017-06-03T17:55:38.733Z,64.56
2017-06-03T17:58:03.420Z,65.98
2017-06-03T18:00:28.041Z,65.98
2017-06-03T18:02:44.121Z,64.85
2017-06-03T18:05:08.707Z,63.68
2017-06-03T18:07:33.294Z,63.95
2017-06-03T18:09:57.923Z,62.78
2017-06-03T18:12:22.482Z,61.91
2017-06-03T18:14:47.078Z,61.42
2017-06-03T18:17:03.278Z,63.04
2017-06-03T18:19:13.846Z,63.62
2017-06-03T18:21:38.429Z,64.37
2017-06-03T18:24:03.027Z,62.36
2017-06-03T18:26:10.655Z,63.69
2017-06-03T18:28:35.224Z,63.4
2017-06-03T18:30:51.313Z,62.23
2017-06-03T18:33:15.902Z,62.16
2017-06-03T18:35:32.040Z,62.62
2017-06-03T18:37:56.593Z,61.94
2017-06-03T18:40:21.187Z,61.78
2017-06-03T18:42:37.275Z,62.82
2017-06-03T18:45:01.869Z,62.75
2017-06-03T18:47:26.491Z,63.62
2017-06-03T18:49:51.056Z,62.55
2017-06-03T18:52:07.155Z,63.1
2017-06-03T18:54:31.745Z,63.3
2017-06-03T18:56:56.369Z,62.75
2017-06-03T18:59:20.828Z,62.26
2017-06-03T19:01:45.328Z,63.69
2017-06-03T19:04:09.914Z,63.75
2017-06-03T19:06:25.949Z,63.75
2017-06-03T19:08:50.508Z,63.46
2017-06-03T19:11:15.002Z,63.65
2017-06-03T19:13:39.589Z,63.01
2017-06-03T19:16:04.085Z,62.65
2017-06-03T19:18:28.679Z,63.01
2017-06-03T19:20:53.284Z,63.01
2017-06-03T19:23:17.868Z,62.91
2017-06-03T19:25:42.354Z,63.3
2017-06-03T19:28:06.851Z,62.43
2017-06-03T19:30:31.337Z,62.62
2017-06-03T19:32:55.933Z,62.13
2017-06-03T19:35:20.536Z,62.4
2017-06-03T19:37:45.114Z,62.69
2017-06-03T19:40:09.620Z,62.49
2017-06-03T19:42:25.712Z,62.04
2017-06-03T19:44:50.201Z,62.4
2017-06-03T19:47:14.696Z,63.82
2017-06-03T19:49:16.664Z,64.11
2017-06-03T19:51:41.142Z,64.4
2017-06-03T19:54:05.637Z,63.75
2017-06-03T19:56:30.122Z,63.37
2017-06-03T19:58:54.619Z,63.92
2017-06-03T20:01:19.088Z,64.01
2017-06-03T20:03:43.597Z,64.4
2017-06-03T20:07:30.436Z,64.2
2017-06-03T20:09:54.920Z,64.47
2017-06-03T20:12:19.403Z,65.72
2017-06-03T20:14:43.895Z,67.72
2017-06-03T20:17:08.392Z,68.01
2017-06-03T20:19:32.878Z,69.68
2017-06-03T20:21:57.289Z,70.9
2017-06-03T20:27:34.003Z,73.61
2017-06-03T20:33:02.435Z,70.88
2017-06-03T20:35:12.923Z,70.24
2017-06-03T20:39:13.542Z,69.85
2017-06-03T20:41:24.033Z,69.21
2017-06-03T20:43:26.041Z,70.18
2017-06-03T20:47:26.635Z,71.3
2017-06-03T20:50:06.010Z,70.08
2017-06-03T20:52:31.417Z,69.98
2017-06-03T20:54:55.810Z,71.5
2017-06-03T20:57:20.194Z,71.88
2017-06-03T20:59:46.639Z,71.4
2017-06-03T21:02:11.023Z,71.04
2017-06-03T21:04:35.525Z,72.08
2017-06-03T21:07:00.046Z,73.78
2017-06-03T21:09:24.392Z,75.58
2017-06-03T21:11:48.786Z,76.06
2017-06-03T21:14:13.172Z,76.06
2017-06-03T21:18:13.890Z,75.97
2017-06-03T21:20:38.309Z,76.35
2017-06-03T21:22:54.167Z,77.67
2017-06-03T21:25:18.500Z,77.42
2017-06-03T21:27:42.879Z,76.45
2017-06-03T21:30:07.275Z,76.64
2017-06-03T21:32:23.107Z,76.93
2017-06-03T21:34:47.449Z,76.51
2017-06-03T21:38:47.939Z,76.8
2017-06-03T21:41:12.274Z,77.83
2017-06-03T21:43:36.593Z,78.06
2017-06-03T21:46:00.849Z,77.92
2017-06-03T21:48:02.720Z,77.73
2017-06-03T21:50:28.124Z,78.11
2017-06-03T21:52:52.512Z,78.31
2017-06-03T21:55:16.830Z,78.41
2017-06-03T21:57:41.074Z,78.41
2017-06-03T22:00:05.376Z,77.67
2017-06-03T22:02:29.650Z,78.59
2017-06-03T22:04:45.543Z,77.96
2017-06-03T22:07:09.834Z,77.28
2017-06-03T22:09:34.115Z,76.95
2017-06-03T22:11:58.449Z,77.73
2017-06-03T22:14:22.687Z,78.31
2017-06-03T22:16:46.980Z,78.21
2017-06-03T22:19:11.287Z,79.08
2017-06-03T22:21:35.541Z,81.26
2017-06-03T22:23:59.830Z,81.26
2017-06-03T22:26:24.137Z,81.16
2017-06-03T22:28:48.410Z,81.99
2017-06-03T22:30:58.824Z,81.93
2017-06-03T22:33:23.157Z,81.16
2017-06-03T22:35:47.461Z,81.65
2017-06-03T22:38:11.723Z,81.35
2017-06-03T22:40:36.071Z,82.57
2017-06-03T22:43:00.213Z,82.38
2017-06-03T22:45:24.394Z,82.23
2017-06-03T22:47:48.613Z,81.8
2017-06-03T22:50:04.361Z,83.34
2017-06-03T22:52:28.548Z,83.34
2017-06-03T22:54:52.757Z,83.25
2017-06-03T22:57:16.900Z,82.09
2017-06-03T22:59:41.114Z,82.03
2017-06-03T23:02:05.284Z,82.38
2017-06-03T23:04:10.575Z,81.55
2017-06-03T23:06:35.841Z,82.57
2017-06-03T23:09:00.034Z,82.67
2017-06-03T23:11:26.258Z,83.53
2017-06-03T23:14:06.103Z,84.07
2017-06-03T23:16:30.395Z,84.84
2017-06-03T23:18:56.530Z,84.17
2017-06-03T23:21:20.819Z,84.65
2017-06-03T23:23:37.489Z,84.31
2017-06-03T23:26:03.651Z,83.25
2017-06-03T23:28:36.529Z,84.46
2017-06-03T23:31:00.708Z,85.52
2017-06-03T23:33:25.924Z,83.73
2017-06-03T23:35:57.094Z,84.41
2017-06-03T23:38:21.262Z,84.31
2017-06-03T23:40:45.462Z,83.92
2017-06-03T23:43:10.664Z,84.79
2017-06-03T23:45:34.851Z,84.21
2017-06-03T23:48:01.088Z,84.69
2017-06-03T23:50:02.945Z,86.04
2017-06-03T23:52:18.727Z,85.81
2017-06-03T23:54:42.910Z,86.29
2017-06-03T23:57:07.086Z,86.48
2017-06-03T23:59:31.265Z,85.66
